createdAt,value
2019-02-06T00:00:48.640Z,3.88
2019-02-06T00:01:48.657Z,3.82
2019-02-06T00:02:48.667Z,3.91
2019-02-06T00:03:48.678Z,3.85
2019-02-06T00:04:48.692Z,3.92
2019-02-06T00:05:48.704Z,3.82
2019-02-06T00:06:48.716Z,3.94
2019-02-06T00:07:48.728Z,3.86
2019-02-06T00:08:48.740Z,3.89
2019-02-06T00:09:48.754Z,3.86
2019-02-06T00:10:48.766Z,3.89
2019-02-06T00:11:48.778Z,3.84
2019-02-06T00:12:48.791Z,3.91
2019-02-06T00:13:48.804Z,3.89
2019-02-06T00:14:48.827Z,3.84
2019-02-06T00:15:48.865Z,3.84
2019-02-06T00:16:48.870Z,3.85
2019-02-06T00:17:48.858Z,3.84
2019-02-06T00:18:48.875Z,3.82
2019-02-06T00:19:48.881Z,3.86
2019-02-06T00:20:48.891Z,3.89
2019-02-06T00:21:49.014Z,3.82
2019-02-06T00:22:48.918Z,3.88
2019-02-06T00:23:48.932Z,3.89
2019-02-06T00:24:48.965Z,3.91
2019-02-06T00:25:48.957Z,3.92
2019-02-06T00:26:48.969Z,3.89
2019-02-06T00:27:48.982Z,3.88
2019-02-06T00:28:48.994Z,3.92
2019-02-06T00:29:49.007Z,3.86
2019-02-06T00:30:49.019Z,3.86
2019-02-06T00:31:49.036Z,3.92
2019-02-06T00:32:49.044Z,3.92
2019-02-06T00:33:49.061Z,3.86
2019-02-06T00:34:49.068Z,3.92
2019-02-06T00:35:49.081Z,3.88
2019-02-06T00:36:49.096Z,3.99
2019-02-06T00:37:49.106Z,3.85
2019-02-06T00:38:49.120Z,3.89
2019-02-06T00:39:49.131Z,3.88
2019-02-06T00:40:49.143Z,3.86
2019-02-06T00:41:49.157Z,3.92
2019-02-06T00:42:49.170Z,3.86
2019-02-06T00:43:49.185Z,3.86
2019-02-06T00:44:49.196Z,3.84
2019-02-06T00:45:49.207Z,3.85
2019-02-06T00:46:49.221Z,3.89
2019-02-06T00:47:49.230Z,3.84
2019-02-06T00:48:49.245Z,3.94
2019-02-06T00:49:49.335Z,3.92
2019-02-06T00:50:49.269Z,3.92
2019-02-06T00:51:49.281Z,3.91
2019-02-06T00:52:49.296Z,3.82
2019-02-06T00:53:49.307Z,3.89
2019-02-06T00:54:49.319Z,3.91
2019-02-06T00:55:49.333Z,3.85
2019-02-06T00:56:49.351Z,3.92
2019-02-06T00:57:49.357Z,3.86
2019-02-06T00:58:49.372Z,3.91
2019-02-06T00:59:49.385Z,3.77
2019-02-06T01:00:49.396Z,3.82
2019-02-06T01:01:49.409Z,3.78
2019-02-06T01:02:49.421Z,3.82
2019-02-06T01:03:49.435Z,3.76
2019-02-06T01:04:49.446Z,3.70
2019-02-06T01:05:49.459Z,3.70
2019-02-06T01:06:49.473Z,3.73
2019-02-06T01:07:49.485Z,3.66
2019-02-06T01:08:49.497Z,3.71
2019-02-06T01:09:49.509Z,3.70
2019-02-06T01:10:49.523Z,3.63
2019-02-06T01:11:49.530Z,3.68
2019-02-06T01:12:49.545Z,3.64
2019-02-06T01:13:49.562Z,3.63
2019-02-06T01:14:49.570Z,3.61
2019-02-06T01:15:49.582Z,3.63
2019-02-06T01:16:49.596Z,3.64
2019-02-06T01:17:49.613Z,3.63
2019-02-06T01:18:49.621Z,3.66
2019-02-06T01:19:49.630Z,3.63
2019-02-06T01:20:49.644Z,3.64
2019-02-06T01:21:49.656Z,3.59
2019-02-06T01:22:49.670Z,3.61
2019-02-06T01:23:49.682Z,3.71
2019-02-06T01:24:49.694Z,3.55
2019-02-06T01:25:49.708Z,3.61
2019-02-06T01:26:49.719Z,3.61
2019-02-06T01:27:49.729Z,3.64
2019-02-06T01:28:49.743Z,3.53
2019-02-06T01:29:49.757Z,3.64
2019-02-06T01:30:49.769Z,3.53
2019-02-06T01:31:49.779Z,3.64
2019-02-06T01:32:49.791Z,3.66
2019-02-06T01:33:49.808Z,3.63
2019-02-06T01:34:49.819Z,3.63
2019-02-06T01:35:50.386Z,3.50
2019-02-06T01:36:49.844Z,3.53
2019-02-06T01:37:49.856Z,3.48
2019-02-06T01:38:49.866Z,3.58
2019-02-06T01:39:49.879Z,3.59
2019-02-06T01:40:49.891Z,3.48
2019-02-06T01:41:49.904Z,3.63
2019-02-06T01:42:49.915Z,3.53
2019-02-06T01:43:49.929Z,3.52
2019-02-06T01:44:49.941Z,3.50
2019-02-06T01:45:49.953Z,3.61
2019-02-06T01:46:49.965Z,3.53
2019-02-06T01:47:49.977Z,3.48
2019-02-06T01:48:49.992Z,3.58
2019-02-06T01:49:50.005Z,3.49
2019-02-06T01:50:50.015Z,3.63
2019-02-06T01:51:50.030Z,3.48
2019-02-06T01:52:50.040Z,3.50
2019-02-06T01:53:50.051Z,3.56
2019-02-06T01:54:50.065Z,3.50
2019-02-06T01:55:50.076Z,3.45
2019-02-06T01:56:50.092Z,3.48
2019-02-06T01:57:50.141Z,3.52
2019-02-06T01:58:50.117Z,3.46
2019-02-06T01:59:50.125Z,3.50
2019-02-06T02:00:50.233Z,3.46
2019-02-06T02:01:50.226Z,3.52
2019-02-06T02:02:50.230Z,3.52
2019-02-06T02:03:50.223Z,3.50
2019-02-06T02:04:50.228Z,3.46
2019-02-06T02:06:01.349Z,3.50
2019-02-06T02:06:50.281Z,3.48
2019-02-06T02:07:50.288Z,3.53
2019-02-06T02:08:50.287Z,3.48
2019-02-06T02:09:50.287Z,3.45
2019-02-06T02:10:50.284Z,3.49
2019-02-06T02:11:50.279Z,3.48
2019-02-06T02:12:50.291Z,3.48
2019-02-06T02:13:50.299Z,3.50
2019-02-06T02:14:50.311Z,3.46
2019-02-06T02:15:50.326Z,3.46
2019-02-06T02:16:50.338Z,3.41
2019-02-06T02:17:50.352Z,3.43
2019-02-06T02:18:50.364Z,3.41
2019-02-06T02:19:50.375Z,3.33
2019-02-06T02:20:50.388Z,3.34
2019-02-06T02:21:50.399Z,3.41
2019-02-06T02:22:50.410Z,3.37
2019-02-06T02:23:50.421Z,3.41
2019-02-06T02:24:50.434Z,3.34
2019-02-06T02:25:50.447Z,3.24
2019-02-06T02:26:50.459Z,3.29
2019-02-06T02:27:50.475Z,3.34
2019-02-06T02:28:50.485Z,3.27
2019-02-06T02:29:50.497Z,3.27
2019-02-06T02:30:50.682Z,3.26
2019-02-06T02:31:50.531Z,3.34
2019-02-06T02:32:50.532Z,3.29
2019-02-06T02:33:50.545Z,3.34
2019-02-06T02:34:50.558Z,3.26
2019-02-06T02:35:50.571Z,3.24
2019-02-06T02:36:50.583Z,3.40
2019-02-06T02:37:50.594Z,3.43
2019-02-06T02:38:50.608Z,3.33
2019-02-06T02:39:50.626Z,3.29
2019-02-06T02:40:50.630Z,3.40
2019-02-06T02:41:50.645Z,3.40
2019-02-06T02:42:50.656Z,3.37
2019-02-06T02:43:50.678Z,3.40
2019-02-06T02:44:50.683Z,3.40
2019-02-06T02:45:50.692Z,3.41
2019-02-06T02:46:50.707Z,3.41
2019-02-06T02:47:50.725Z,3.45
2019-02-06T02:48:50.730Z,3.40
2019-02-06T02:49:50.743Z,3.49
2019-02-06T02:50:50.757Z,3.49
2019-02-06T02:51:50.766Z,3.46
2019-02-06T02:52:50.780Z,3.53
2019-02-06T02:53:50.791Z,3.52
2019-02-06T02:54:50.816Z,3.50
2019-02-06T02:55:50.815Z,3.52
2019-02-06T02:56:50.829Z,3.52
2019-02-06T02:57:50.842Z,3.49
2019-02-06T02:58:50.855Z,3.48
2019-02-06T02:59:50.868Z,3.45
2019-02-06T03:00:50.881Z,3.46
2019-02-06T03:01:50.900Z,3.49
2019-02-06T03:02:50.912Z,3.50
2019-02-06T03:03:50.921Z,3.58
2019-02-06T03:04:50.935Z,3.55
2019-02-06T03:05:50.944Z,3.66
2019-02-06T03:06:50.953Z,3.59
2019-02-06T03:07:50.966Z,3.63
2019-02-06T03:08:50.981Z,3.64
2019-02-06T03:09:50.997Z,3.67
2019-02-06T03:10:51.014Z,3.64
2019-02-06T03:11:51.022Z,3.66
2019-02-06T03:12:51.032Z,3.67
2019-02-06T03:13:51.042Z,3.61
2019-02-06T03:14:51.057Z,3.64
2019-02-06T03:15:51.069Z,3.63
2019-02-06T03:16:51.079Z,3.70
2019-02-06T03:17:51.097Z,3.66
2019-02-06T03:18:51.104Z,3.70
2019-02-06T03:19:51.116Z,3.68
2019-02-06T03:20:51.130Z,3.63
2019-02-06T03:21:51.142Z,3.67
2019-02-06T03:22:51.155Z,3.63
2019-02-06T03:23:51.176Z,3.70
2019-02-06T03:24:51.181Z,3.64
2019-02-06T03:25:51.194Z,3.63
2019-02-06T03:26:51.205Z,3.61
2019-02-06T03:27:51.215Z,3.61
2019-02-06T03:28:51.235Z,3.59
2019-02-06T03:29:51.243Z,3.61
2019-02-06T03:30:51.452Z,3.63
2019-02-06T03:31:51.269Z,3.61
2019-02-06T03:32:51.280Z,3.70
2019-02-06T03:33:51.293Z,3.63
2019-02-06T03:34:51.307Z,3.61
2019-02-06T03:35:51.318Z,3.64
2019-02-06T03:36:51.341Z,3.64
2019-02-06T03:37:51.346Z,3.58
2019-02-06T03:38:51.354Z,3.67
2019-02-06T03:39:51.369Z,3.63
2019-02-06T03:40:51.462Z,3.68
2019-02-06T03:41:51.394Z,3.63
2019-02-06T03:42:51.406Z,3.61
2019-02-06T03:43:51.419Z,3.59
2019-02-06T03:44:51.432Z,3.64
2019-02-06T03:45:51.442Z,3.61
2019-02-06T03:46:51.469Z,3.56
2019-02-06T03:47:51.468Z,3.59
2019-02-06T03:48:51.481Z,3.63
2019-02-06T03:49:51.497Z,3.67
2019-02-06T03:50:51.513Z,3.55
2019-02-06T03:51:51.520Z,3.66
2019-02-06T03:52:51.533Z,3.66
2019-02-06T03:53:51.547Z,3.58
2019-02-06T03:54:51.562Z,3.52
2019-02-06T03:55:51.569Z,3.59
2019-02-06T03:56:51.582Z,3.67
2019-02-06T03:57:51.595Z,3.55
2019-02-06T03:58:51.612Z,3.68
2019-02-06T03:59:51.620Z,3.59
2019-02-06T04:00:51.635Z,3.64
2019-02-06T04:01:51.646Z,3.64
2019-02-06T04:02:51.658Z,3.67
2019-02-06T04:03:51.676Z,3.53
2019-02-06T04:04:51.685Z,3.58
2019-02-06T04:05:51.696Z,3.48
2019-02-06T04:06:54.987Z,3.58
2019-02-06T04:07:51.721Z,3.59
2019-02-06T04:08:51.736Z,3.55
2019-02-06T04:09:51.747Z,3.52
2019-02-06T04:10:51.760Z,3.55
2019-02-06T04:11:51.771Z,3.52
2019-02-06T04:12:51.786Z,3.50
2019-02-06T04:13:51.796Z,3.50
2019-02-06T04:14:51.810Z,3.49
2019-02-06T04:15:51.822Z,3.43
2019-02-06T04:16:51.835Z,3.43
2019-02-06T04:17:54.382Z,3.36
2019-02-06T04:18:51.861Z,3.37
2019-02-06T04:19:51.874Z,3.37
2019-02-06T04:20:51.887Z,3.36
2019-02-06T04:21:51.901Z,3.33
2019-02-06T04:22:51.910Z,3.31
2019-02-06T04:23:51.925Z,3.30
2019-02-06T04:24:51.936Z,3.30
2019-02-06T04:25:51.964Z,3.26
2019-02-06T04:26:51.982Z,3.22
2019-02-06T04:27:52.056Z,3.24
2019-02-06T04:28:52.047Z,3.08
2019-02-06T04:29:52.038Z,3.12
2019-02-06T04:30:52.045Z,3.08
2019-02-06T04:31:52.105Z,3.06
2019-02-06T04:32:52.098Z,3.09
2019-02-06T04:33:52.088Z,3.06
2019-02-06T04:34:52.100Z,3.03
2019-02-06T04:35:52.100Z,3.03
2019-02-06T04:36:52.094Z,2.94
2019-02-06T04:37:52.093Z,2.94
2019-02-06T04:38:52.121Z,3.03
2019-02-06T04:39:52.119Z,2.97
2019-02-06T04:40:52.132Z,2.91
2019-02-06T04:41:52.143Z,2.85
2019-02-06T04:42:52.159Z,2.97
2019-02-06T04:43:52.166Z,2.94
2019-02-06T04:44:52.180Z,2.88
2019-02-06T04:45:52.190Z,2.82
2019-02-06T04:46:52.200Z,2.88
2019-02-06T04:47:52.212Z,2.85
2019-02-06T04:48:52.226Z,2.87
2019-02-06T04:49:52.238Z,2.76
2019-02-06T04:50:52.250Z,2.70
2019-02-06T04:51:52.261Z,2.69
2019-02-06T04:52:52.271Z,2.77
2019-02-06T04:53:52.282Z,2.59
2019-02-06T04:54:52.294Z,2.65
2019-02-06T04:55:52.306Z,2.61
2019-02-06T04:56:52.318Z,2.52
2019-02-06T04:57:52.337Z,2.46
2019-02-06T04:58:52.342Z,2.50
2019-02-06T04:59:52.353Z,2.43
2019-02-06T05:00:52.369Z,2.40
2019-02-06T05:01:52.383Z,2.34
2019-02-06T05:02:52.389Z,2.34
2019-02-06T05:03:52.399Z,2.32
2019-02-06T05:04:52.413Z,2.22
2019-02-06T05:05:52.423Z,2.22
2019-02-06T05:06:52.434Z,2.16
2019-02-06T05:07:52.444Z,2.12
2019-02-06T05:08:52.457Z,2.12
2019-02-06T05:09:52.469Z,2.07
2019-02-06T05:10:52.479Z,1.98
2019-02-06T05:11:52.488Z,2.05
2019-02-06T05:12:52.499Z,2.01
2019-02-06T05:13:52.512Z,1.97
2019-02-06T05:14:52.527Z,1.86
2019-02-06T05:15:52.535Z,1.95
2019-02-06T05:16:52.557Z,1.76
2019-02-06T05:17:55.697Z,1.75
2019-02-06T05:18:52.588Z,1.78
2019-02-06T05:19:52.581Z,1.76
2019-02-06T05:20:52.605Z,1.70
2019-02-06T05:21:52.601Z,1.67
2019-02-06T05:22:52.610Z,1.58
2019-02-06T05:23:52.621Z,1.66
2019-02-06T05:24:52.634Z,1.50
2019-02-06T05:25:52.650Z,1.43
2019-02-06T05:26:52.654Z,1.46
2019-02-06T05:27:52.665Z,1.34
2019-02-06T05:28:52.676Z,1.34
2019-02-06T05:29:52.685Z,1.42
2019-02-06T05:30:52.698Z,1.27
2019-02-06T05:31:52.710Z,1.30
2019-02-06T05:32:52.718Z,1.27
2019-02-06T05:33:52.731Z,1.27
2019-02-06T05:34:52.741Z,1.25
2019-02-06T05:35:52.750Z,1.28
2019-02-06T05:36:52.773Z,1.14
2019-02-06T05:37:52.773Z,1.21
2019-02-06T05:38:52.783Z,1.14
2019-02-06T05:39:52.794Z,1.16
2019-02-06T05:40:52.805Z,1.12
2019-02-06T05:41:52.820Z,1.07
2019-02-06T05:42:52.968Z,1.04
2019-02-06T05:43:52.835Z,1.06
2019-02-06T05:44:52.845Z,1.02
2019-02-06T05:45:52.857Z,1.07
2019-02-06T05:46:52.867Z,1.02
2019-02-06T05:47:52.878Z,1.04
2019-02-06T05:48:52.888Z,0.94
2019-02-06T05:49:52.899Z,0.95
2019-02-06T05:50:52.909Z,0.89
2019-02-06T05:51:52.916Z,0.86
2019-02-06T05:52:52.932Z,0.91
2019-02-06T05:53:52.937Z,0.85
2019-02-06T05:54:52.951Z,0.85
2019-02-06T05:55:52.958Z,0.86
2019-02-06T05:56:52.969Z,0.82
2019-02-06T05:57:52.982Z,0.88
2019-02-06T05:58:52.995Z,0.78
2019-02-06T05:59:53.001Z,0.70
2019-02-06T06:00:53.011Z,0.76
2019-02-06T06:01:53.024Z,0.73
2019-02-06T06:02:53.035Z,0.73
2019-02-06T06:03:53.044Z,0.74
2019-02-06T06:04:53.052Z,0.78
2019-02-06T06:05:53.065Z,0.67
2019-02-06T06:06:53.073Z,0.64
2019-02-06T06:07:53.082Z,0.63
2019-02-06T06:08:53.113Z,0.64
2019-02-06T06:09:53.108Z,0.58
2019-02-06T06:10:53.129Z,0.59
2019-02-06T06:11:53.124Z,0.58
2019-02-06T06:12:53.135Z,0.61
2019-02-06T06:13:53.144Z,0.55
2019-02-06T06:14:53.154Z,0.49
2019-02-06T06:15:53.164Z,0.45
2019-02-06T06:16:53.175Z,0.51
2019-02-06T06:17:53.185Z,0.55
2019-02-06T06:18:53.194Z,0.40
2019-02-06T06:19:53.203Z,0.40
2019-02-06T06:20:53.213Z,0.39
2019-02-06T06:21:53.225Z,0.40
2019-02-06T06:22:53.237Z,0.39
2019-02-06T06:23:53.247Z,0.31
2019-02-06T06:24:53.253Z,0.37
2019-02-06T06:25:53.271Z,0.33
2019-02-06T06:26:53.274Z,0.30
2019-02-06T06:27:53.284Z,0.36
2019-02-06T06:28:53.301Z,0.31
2019-02-06T06:29:53.306Z,0.36
2019-02-06T06:30:53.313Z,0.33
2019-02-06T06:31:53.323Z,0.30
2019-02-06T06:32:53.334Z,0.29
2019-02-06T06:33:53.343Z,0.24
2019-02-06T06:34:53.359Z,0.23
2019-02-06T06:35:53.361Z,0.27
2019-02-06T06:36:56.615Z,0.19
2019-02-06T06:37:59.963Z,0.27
2019-02-06T06:38:53.393Z,0.19
2019-02-06T06:39:53.404Z,0.23
2019-02-06T06:40:53.411Z,0.18
2019-02-06T06:41:53.421Z,0.08
2019-02-06T06:42:53.430Z,0.12
2019-02-06T06:43:53.441Z,0.08
2019-02-06T06:44:53.451Z,0.23
2019-02-06T06:45:53.462Z,0.19
2019-02-06T06:46:53.471Z,0.15
2019-02-06T06:47:53.479Z,0.18
2019-02-06T06:48:53.492Z,0.18
2019-02-06T06:49:53.581Z,0.13
2019-02-06T06:50:53.515Z,0.11
2019-02-06T06:51:53.519Z,0.18
2019-02-06T06:52:53.531Z,0.00
2019-02-06T06:53:53.540Z,0.18
2019-02-06T06:54:53.548Z,0.15
2019-02-06T06:55:53.558Z,0.16
2019-02-06T06:56:53.568Z,0.15
2019-02-06T06:57:53.576Z,0.19
2019-02-06T06:58:53.589Z,0.18
2019-02-06T06:59:55.507Z,0.16
2019-02-06T07:00:53.606Z,0.09
2019-02-06T07:01:53.616Z,0.20
2019-02-06T07:02:53.630Z,0.29
2019-02-06T07:03:53.635Z,0.29
2019-02-06T07:04:53.648Z,0.29
2019-02-06T07:05:53.668Z,0.31
2019-02-06T07:06:53.665Z,0.33
2019-02-06T07:07:53.695Z,0.36
2019-02-06T07:08:53.685Z,0.34
2019-02-06T07:09:53.694Z,0.36
2019-02-06T07:10:53.712Z,0.39
2019-02-06T07:11:53.714Z,0.39
2019-02-06T07:12:53.725Z,0.48
2019-02-06T07:13:53.739Z,0.55
2019-02-06T07:14:53.831Z,0.59
2019-02-06T07:15:53.835Z,0.61
2019-02-06T07:16:53.829Z,0.64
2019-02-06T07:17:53.827Z,0.76
2019-02-06T07:18:53.839Z,0.81
2019-02-06T07:19:53.829Z,0.73
2019-02-06T07:20:53.896Z,0.84
2019-02-06T07:21:53.894Z,0.89
2019-02-06T07:22:53.898Z,0.86
2019-02-06T07:23:53.882Z,0.91
2019-02-06T07:24:53.895Z,1.06
2019-02-06T07:25:53.882Z,0.94
2019-02-06T07:26:53.881Z,1.02
2019-02-06T07:27:53.887Z,1.02
2019-02-06T07:28:53.890Z,1.04
2019-02-06T07:29:53.898Z,1.04
2019-02-06T07:30:53.910Z,1.14
2019-02-06T07:31:53.921Z,1.10
2019-02-06T07:32:53.931Z,1.20
2019-02-06T07:33:53.942Z,1.10
2019-02-06T07:34:53.951Z,1.22
2019-02-06T07:35:53.961Z,1.25
2019-02-06T07:36:53.972Z,1.12
2019-02-06T07:37:53.984Z,1.21
2019-02-06T07:38:53.993Z,1.14
2019-02-06T07:39:54.005Z,1.28
2019-02-06T07:40:54.014Z,1.25
2019-02-06T07:41:54.025Z,1.21
2019-02-06T07:42:54.035Z,1.21
2019-02-06T07:43:54.043Z,1.24
2019-02-06T07:44:54.054Z,1.22
2019-02-06T07:45:54.068Z,1.28
2019-02-06T07:46:54.077Z,1.31
2019-02-06T07:47:54.088Z,1.30
2019-02-06T07:48:54.099Z,1.24
2019-02-06T07:49:54.110Z,1.31
2019-02-06T07:50:54.122Z,1.25
2019-02-06T07:51:54.135Z,1.39
2019-02-06T07:52:54.140Z,1.36
2019-02-06T07:53:54.152Z,1.32
2019-02-06T07:54:54.164Z,1.34
2019-02-06T07:55:54.171Z,1.32
2019-02-06T07:56:54.185Z,1.31
2019-02-06T07:57:54.195Z,1.32
2019-02-06T07:58:54.204Z,1.34
2019-02-06T07:59:54.216Z,1.45
2019-02-06T08:00:54.225Z,1.50
2019-02-06T08:01:54.238Z,1.46
2019-02-06T08:02:54.254Z,1.53
2019-02-06T08:03:54.263Z,1.48
2019-02-06T08:04:54.270Z,1.49
2019-02-06T08:05:54.284Z,1.56
2019-02-06T08:06:54.292Z,1.49
2019-02-06T08:07:54.303Z,1.57
2019-02-06T08:08:54.315Z,1.58
2019-02-06T08:09:54.324Z,1.57
2019-02-06T08:10:54.338Z,1.58
2019-02-06T08:11:54.349Z,1.63
2019-02-06T08:12:54.357Z,1.68
2019-02-06T08:13:54.372Z,1.63
2019-02-06T08:14:54.379Z,1.63
2019-02-06T08:15:54.388Z,1.66
2019-02-06T08:16:54.398Z,1.68
2019-02-06T08:17:54.412Z,1.66
2019-02-06T08:18:54.524Z,1.64
2019-02-06T08:19:54.436Z,1.75
2019-02-06T08:20:54.445Z,1.76
2019-02-06T08:21:54.456Z,1.76
2019-02-06T08:22:54.467Z,1.70
2019-02-06T08:23:54.478Z,1.71
2019-02-06T08:24:54.488Z,1.78
2019-02-06T08:25:54.500Z,1.84
2019-02-06T08:26:54.511Z,1.76
2019-02-06T08:27:54.525Z,1.82
2019-02-06T08:28:54.533Z,1.75
2019-02-06T08:29:54.544Z,1.76
2019-02-06T08:30:54.555Z,1.84
2019-02-06T08:31:54.565Z,1.85
2019-02-06T08:32:54.576Z,1.79
2019-02-06T08:33:54.589Z,1.88
2019-02-06T08:34:54.600Z,1.81
2019-02-06T08:35:54.611Z,1.85
2019-02-06T08:36:54.622Z,1.88
2019-02-06T08:37:54.633Z,1.93
2019-02-06T08:38:55.677Z,1.93
2019-02-06T08:39:54.655Z,1.81
2019-02-06T08:40:54.666Z,1.93
2019-02-06T08:41:54.677Z,1.93
2019-02-06T08:42:54.691Z,2.00
2019-02-06T08:43:54.698Z,1.98
2019-02-06T08:44:54.710Z,1.93
2019-02-06T08:45:54.721Z,1.93
2019-02-06T08:46:54.738Z,1.97
2019-02-06T08:47:54.854Z,2.04
2019-02-06T08:48:54.754Z,1.97
2019-02-06T08:49:54.765Z,2.00
2019-02-06T08:50:54.779Z,2.01
2019-02-06T08:51:54.789Z,1.95
2019-02-06T08:52:54.802Z,2.01
2019-02-06T08:53:54.811Z,2.05
2019-02-06T08:54:54.824Z,2.10
2019-02-06T08:55:54.835Z,2.10
2019-02-06T08:56:54.845Z,2.05
2019-02-06T08:57:54.859Z,2.07
2019-02-06T08:58:54.867Z,2.19
2019-02-06T08:59:54.878Z,2.21
2019-02-06T09:00:54.891Z,2.23
2019-02-06T09:01:54.900Z,2.19
2019-02-06T09:02:54.915Z,2.18
2019-02-06T09:03:54.925Z,2.36
2019-02-06T09:04:56.142Z,2.37
2019-02-06T09:05:54.948Z,2.34
2019-02-06T09:06:54.973Z,2.43
2019-02-06T09:07:54.970Z,2.41
2019-02-06T09:08:59.791Z,2.47
2019-02-06T09:09:54.996Z,2.50
2019-02-06T09:10:55.006Z,2.52
2019-02-06T09:11:55.016Z,2.59
2019-02-06T09:12:55.037Z,2.65
2019-02-06T09:13:55.041Z,2.72
2019-02-06T09:14:55.053Z,2.72
2019-02-06T09:15:55.076Z,2.72
2019-02-06T09:16:55.079Z,2.82
2019-02-06T09:17:55.089Z,2.85
2019-02-06T09:18:55.100Z,2.90
2019-02-06T09:19:55.112Z,2.94
2019-02-06T09:20:55.123Z,2.97
2019-02-06T09:21:55.134Z,2.87
2019-02-06T09:22:55.147Z,2.97
2019-02-06T09:23:55.162Z,3.05
2019-02-06T09:24:55.169Z,2.95
2019-02-06T09:25:57.409Z,3.00
2019-02-06T09:26:55.197Z,3.01
2019-02-06T09:27:55.207Z,3.15
2019-02-06T09:28:55.220Z,3.05
2019-02-06T09:29:55.232Z,3.11
2019-02-06T09:30:55.243Z,3.05
2019-02-06T09:31:55.259Z,3.22
2019-02-06T09:32:55.270Z,3.22
2019-02-06T09:33:55.279Z,3.21
2019-02-06T09:34:55.294Z,3.24
2019-02-06T09:35:55.304Z,3.27
2019-02-06T09:36:55.317Z,3.41
2019-02-06T09:37:55.332Z,3.37
2019-02-06T09:38:55.346Z,3.37
2019-02-06T09:39:55.355Z,3.37
2019-02-06T09:40:55.369Z,3.48
2019-02-06T09:41:55.376Z,3.49
2019-02-06T09:42:55.395Z,3.49
2019-02-06T09:43:55.403Z,3.48
2019-02-06T09:44:55.414Z,3.50
2019-02-06T09:45:57.140Z,3.64
2019-02-06T09:46:55.441Z,3.61
2019-02-06T09:47:55.452Z,3.76
2019-02-06T09:48:55.466Z,3.70
2019-02-06T09:49:55.478Z,3.77
2019-02-06T09:50:55.490Z,3.86
2019-02-06T09:51:55.507Z,3.91
2019-02-06T09:52:55.536Z,3.92
2019-02-06T09:53:55.528Z,3.99
2019-02-06T09:54:55.565Z,4.06
2019-02-06T09:55:55.622Z,4.03
2019-02-06T09:56:55.630Z,4.14
2019-02-06T09:57:55.627Z,4.12
2019-02-06T09:58:55.630Z,4.13
2019-02-06T09:59:55.631Z,4.30
2019-02-06T10:00:55.692Z,4.27
2019-02-06T10:01:55.687Z,4.30
2019-02-06T10:02:55.683Z,4.42
2019-02-06T10:03:55.688Z,4.42
2019-02-06T10:04:55.691Z,4.52
2019-02-06T10:05:55.708Z,4.56
2019-02-06T10:06:55.700Z,4.64
2019-02-06T10:07:55.714Z,4.68
2019-02-06T10:08:55.728Z,4.67
2019-02-06T10:09:57.931Z,4.75
2019-02-06T10:10:55.761Z,4.75
2019-02-06T10:11:55.769Z,4.87
2019-02-06T10:12:55.785Z,4.94
2019-02-06T10:13:55.795Z,4.86
2019-02-06T10:14:55.811Z,4.90
2019-02-06T10:15:55.825Z,4.97
2019-02-06T10:16:55.840Z,4.97
2019-02-06T10:17:55.855Z,5.00
2019-02-06T10:18:55.868Z,4.97
2019-02-06T10:19:55.882Z,5.08
2019-02-06T10:20:55.896Z,5.05
2019-02-06T10:21:55.910Z,5.13
2019-02-06T10:22:55.923Z,5.18
2019-02-06T10:23:55.937Z,5.19
2019-02-06T10:24:55.951Z,5.13
2019-02-06T10:25:55.970Z,5.16
2019-02-06T10:26:55.982Z,5.18
2019-02-06T10:27:56.055Z,5.15
2019-02-06T10:28:56.010Z,5.20
2019-02-06T10:29:56.022Z,5.12
2019-02-06T10:30:56.036Z,5.15
2019-02-06T10:31:56.049Z,5.19
2019-02-06T10:32:56.064Z,5.16
2019-02-06T10:33:56.079Z,5.22
2019-02-06T10:34:56.093Z,5.23
2019-02-06T10:35:56.107Z,5.26
2019-02-06T10:36:56.122Z,5.26
2019-02-06T10:37:56.133Z,5.36
2019-02-06T10:38:56.150Z,5.34
2019-02-06T10:39:58.635Z,5.36
2019-02-06T10:40:56.175Z,5.29
2019-02-06T10:41:56.191Z,5.41
2019-02-06T10:42:56.203Z,5.54
2019-02-06T10:43:56.217Z,5.54
2019-02-06T10:44:56.234Z,5.44
2019-02-06T10:45:56.312Z,5.58
2019-02-06T10:46:56.261Z,5.46
2019-02-06T10:47:56.275Z,5.62
2019-02-06T10:48:56.289Z,5.56
2019-02-06T10:49:56.303Z,5.62
2019-02-06T10:50:58.222Z,5.70
2019-02-06T10:51:56.330Z,5.77
2019-02-06T10:52:56.345Z,5.72
2019-02-06T10:53:56.364Z,5.74
2019-02-06T10:54:56.375Z,5.83
2019-02-06T10:55:56.388Z,5.94
2019-02-06T10:56:56.404Z,5.87
2019-02-06T10:57:56.418Z,5.97
2019-02-06T10:58:56.432Z,6.01
2019-02-06T10:59:56.447Z,6.01
2019-02-06T11:00:56.460Z,6.05
2019-02-06T11:01:56.475Z,6.07
2019-02-06T11:02:56.491Z,6.25
2019-02-06T11:03:56.504Z,6.16
2019-02-06T11:04:56.520Z,6.20
2019-02-06T11:05:56.536Z,6.19
2019-02-06T11:06:56.551Z,6.17
2019-02-06T11:07:56.563Z,6.28
2019-02-06T11:08:56.591Z,6.28
2019-02-06T11:09:56.597Z,6.19
2019-02-06T11:10:56.610Z,6.34
2019-02-06T11:11:56.625Z,6.44
2019-02-06T11:12:56.639Z,6.44
2019-02-06T11:13:56.655Z,6.47
2019-02-06T11:14:56.670Z,6.47
2019-02-06T11:15:56.685Z,6.47
2019-02-06T11:16:56.700Z,6.52
2019-02-06T11:17:56.715Z,6.49
2019-02-06T11:18:56.731Z,6.46
2019-02-06T11:19:56.749Z,6.52
2019-02-06T11:20:56.760Z,6.52
2019-02-06T11:21:56.777Z,6.49
2019-02-06T11:22:56.790Z,6.59
2019-02-06T11:23:56.804Z,6.59
2019-02-06T11:24:56.820Z,6.60
2019-02-06T11:25:56.837Z,6.77
2019-02-06T11:26:56.851Z,6.67
2019-02-06T11:27:56.866Z,6.77
2019-02-06T11:28:56.882Z,6.78
2019-02-06T11:29:56.896Z,6.85
2019-02-06T11:30:57.206Z,6.93
2019-02-06T11:31:56.930Z,7.04
2019-02-06T11:32:56.945Z,7.10
2019-02-06T11:33:56.961Z,7.08
2019-02-06T11:34:56.975Z,7.21
2019-02-06T11:35:56.991Z,7.25
2019-02-06T11:36:57.008Z,7.26
2019-02-06T11:37:57.022Z,7.23
2019-02-06T11:38:57.041Z,7.39
2019-02-06T11:39:58.260Z,7.37
2019-02-06T11:40:57.073Z,7.39
2019-02-06T11:41:57.086Z,7.43
2019-02-06T11:42:57.105Z,7.43
2019-02-06T11:43:57.120Z,7.50
2019-02-06T11:44:57.137Z,7.51
2019-02-06T11:45:57.157Z,7.53
2019-02-06T11:46:57.168Z,7.53
2019-02-06T11:47:57.185Z,7.58
2019-02-06T11:48:57.201Z,7.53
2019-02-06T11:49:57.219Z,7.58
2019-02-06T11:50:57.238Z,7.44
2019-02-06T11:51:57.249Z,7.59
2019-02-06T11:52:57.267Z,7.58
2019-02-06T11:53:57.283Z,7.58
2019-02-06T11:54:57.301Z,7.56
2019-02-06T11:55:57.314Z,7.61
2019-02-06T11:56:57.331Z,7.69
2019-02-06T11:57:57.349Z,7.66
2019-02-06T11:58:57.365Z,7.66
2019-02-06T11:59:57.387Z,7.62
2019-02-06T12:00:57.429Z,7.59
2019-02-06T12:01:57.481Z,7.69
2019-02-06T12:02:57.488Z,7.58
2019-02-06T12:03:57.471Z,7.44
2019-02-06T12:04:57.541Z,7.50
2019-02-06T12:05:57.546Z,7.48
2019-02-06T12:06:57.534Z,7.53
2019-02-06T12:07:57.539Z,7.51
2019-02-06T12:08:57.535Z,7.50
2019-02-06T12:10:08.994Z,7.55
2019-02-06T12:10:57.559Z,7.51
2019-02-06T12:11:57.638Z,7.53
2019-02-06T12:12:57.590Z,7.51
2019-02-06T12:13:57.609Z,7.55
2019-02-06T12:14:57.630Z,7.53
2019-02-06T12:15:57.638Z,7.50
2019-02-06T12:16:57.656Z,7.56
2019-02-06T12:17:57.673Z,7.53
2019-02-06T12:18:57.689Z,7.51
2019-02-06T12:19:57.703Z,7.55
2019-02-06T12:20:57.720Z,7.46
2019-02-06T12:21:57.735Z,7.48
2019-02-06T12:22:57.755Z,7.62
2019-02-06T12:23:57.771Z,7.53
2019-02-06T12:24:57.784Z,7.61
2019-02-06T12:25:57.801Z,7.62
2019-02-06T12:26:57.826Z,7.51
2019-02-06T12:27:57.836Z,7.51
2019-02-06T12:28:57.860Z,7.56
2019-02-06T12:29:57.880Z,7.55
2019-02-06T12:30:57.883Z,7.59
2019-02-06T12:31:57.898Z,7.59
2019-02-06T12:32:57.911Z,7.69
2019-02-06T12:33:57.929Z,7.67
2019-02-06T12:34:57.946Z,7.64
2019-02-06T12:35:57.958Z,7.69
2019-02-06T12:36:57.979Z,7.78
2019-02-06T12:37:57.996Z,7.69
2019-02-06T12:38:58.011Z,7.69
2019-02-06T12:39:58.032Z,7.84
2019-02-06T12:40:58.044Z,7.78
2019-02-06T12:41:58.060Z,7.77
2019-02-06T12:42:58.075Z,7.91
2019-02-06T12:43:58.093Z,7.87
2019-02-06T12:44:59.114Z,7.85
2019-02-06T12:45:58.126Z,7.84
2019-02-06T12:46:58.144Z,7.88
2019-02-06T12:47:58.163Z,7.88
2019-02-06T12:48:58.173Z,7.85
2019-02-06T12:49:58.193Z,7.88
2019-02-06T12:50:58.209Z,7.81
2019-02-06T12:51:58.227Z,7.87
2019-02-06T12:52:58.263Z,7.83
2019-02-06T12:53:58.259Z,7.85
2019-02-06T12:54:58.275Z,7.88
2019-02-06T12:55:58.291Z,7.84
2019-02-06T12:56:58.308Z,7.87
2019-02-06T12:57:58.325Z,7.83
2019-02-06T12:58:58.345Z,7.83
2019-02-06T12:59:58.356Z,7.83
2019-02-06T13:00:58.374Z,7.88
2019-02-06T13:01:58.392Z,7.83
2019-02-06T13:03:00.077Z,7.87
2019-02-06T13:03:58.421Z,7.87
2019-02-06T13:04:58.439Z,7.84
2019-02-06T13:05:58.454Z,7.90
2019-02-06T13:07:00.271Z,7.81
2019-02-06T13:07:58.488Z,7.84
2019-02-06T13:08:58.504Z,7.95
2019-02-06T13:09:58.522Z,7.91
2019-02-06T13:10:58.535Z,7.95
2019-02-06T13:11:58.557Z,7.95
2019-02-06T13:12:58.569Z,7.90
2019-02-06T13:13:58.587Z,7.99
2019-02-06T13:14:58.602Z,8.03
2019-02-06T13:15:58.619Z,7.99
2019-02-06T13:16:58.635Z,8.02
2019-02-06T13:17:58.651Z,8.01
2019-02-06T13:18:58.672Z,7.91